createdAt,value
2018-07-21T00:02:25.580Z,51.04
2018-07-21T00:04:54.771Z,51.57
2018-07-21T00:07:23.803Z,51.17
2018-07-21T00:09:52.868Z,50.83
2018-07-21T00:12:22.309Z,50.55
2018-07-21T00:14:51.236Z,51.43
2018-07-21T00:17:20.400Z,51.31
2018-07-21T00:19:49.789Z,51.33
2018-07-21T00:22:18.987Z,51.29
2018-07-21T00:24:48.288Z,50.01
2018-07-21T00:27:17.361Z,50.58
2018-07-21T00:29:46.777Z,51.06
2018-07-21T00:32:16.233Z,50.52
2018-07-21T00:34:45.582Z,50.46
2018-07-21T00:37:14.932Z,50.52
2018-07-21T00:39:44.249Z,50.41
2018-07-21T00:42:13.577Z,50.36
2018-07-21T00:44:42.804Z,51.07
2018-07-21T00:47:11.920Z,50.85
2018-07-21T00:49:40.951Z,50.35
2018-07-21T00:52:10.201Z,50.32
2018-07-21T00:54:39.478Z,50.31
2018-07-21T00:57:08.501Z,51.54
2018-07-21T00:59:37.453Z,51.41
2018-07-21T01:02:06.783Z,50.47
2018-07-21T01:04:36.124Z,51.24
2018-07-21T01:07:05.373Z,51.33
2018-07-21T01:09:34.659Z,51.32
2018-07-21T01:12:04.018Z,50.75
2018-07-21T01:14:33.144Z,51.10
2018-07-21T01:17:02.383Z,51.47
2018-07-21T01:19:31.679Z,50.67
2018-07-21T01:22:00.931Z,50.77
2018-07-21T01:24:30.123Z,51.70
2018-07-21T01:26:59.426Z,51.95
2018-07-21T01:29:28.756Z,51.85
2018-07-21T01:31:58.041Z,51.63
2018-07-21T01:34:27.415Z,52.18
2018-07-21T01:36:56.689Z,52.58
2018-07-21T01:39:26.030Z,51.70
2018-07-21T01:41:55.040Z,52.75
2018-07-21T01:44:25.353Z,52.64
2018-07-21T01:46:54.641Z,53.75
2018-07-21T01:49:24.040Z,53.42
2018-07-21T01:51:53.391Z,54.46
2018-07-21T01:54:22.285Z,53.47
2018-07-21T01:56:51.435Z,54.10
2018-07-21T01:59:20.831Z,54.07
2018-07-21T02:01:50.068Z,54.32
2018-07-21T02:04:19.036Z,54.57
2018-07-21T02:06:48.221Z,54.71
2018-07-21T02:09:17.411Z,54.83
2018-07-21T02:11:46.594Z,53.47
2018-07-21T02:14:15.820Z,52.83
2018-07-21T02:16:44.846Z,52.57
2018-07-21T02:19:14.073Z,53.17
2018-07-21T02:21:43.044Z,53.43
2018-07-21T02:24:12.290Z,53.09
2018-07-21T02:26:41.647Z,53.60
2018-07-21T02:29:10.791Z,53.51
2018-07-21T02:31:40.078Z,54.01
2018-07-21T02:34:09.542Z,53.44
2018-07-21T02:36:38.763Z,55.16
2018-07-21T02:39:10.916Z,56.11
2018-07-21T02:41:40.463Z,57.08
2018-07-21T02:44:09.679Z,57.62
2018-07-21T02:46:39.062Z,57.95
2018-07-21T02:49:08.196Z,58.36
2018-07-21T02:51:37.563Z,58.19
2018-07-21T02:54:06.788Z,58.23
2018-07-21T02:56:36.009Z,57.84
2018-07-21T02:59:05.120Z,57.69
2018-07-21T03:01:34.307Z,57.33
2018-07-21T03:04:03.326Z,56.77
2018-07-21T03:06:32.614Z,56.61
2018-07-21T03:09:01.864Z,55.83
2018-07-21T03:11:31.121Z,54.44
2018-07-21T03:14:00.635Z,54.31
2018-07-21T03:16:30.120Z,53.99
2018-07-21T03:18:59.505Z,52.82
2018-07-21T03:21:28.595Z,52.87
2018-07-21T03:23:57.662Z,52.80
2018-07-21T03:26:27.056Z,51.48
2018-07-21T03:28:56.252Z,51.90
2018-07-21T03:31:25.648Z,51.38
2018-07-21T03:33:54.808Z,51.73
2018-07-21T03:36:24.207Z,51.28
2018-07-21T03:38:53.400Z,51.27
2018-07-21T03:41:22.782Z,51.43
2018-07-21T03:43:52.215Z,51.15
2018-07-21T03:46:21.666Z,50.31
2018-07-21T03:48:50.630Z,51.29
2018-07-21T03:51:19.837Z,50.77
2018-07-21T03:53:49.199Z,50.90
2018-07-21T03:56:18.556Z,50.68
2018-07-21T03:58:47.719Z,51.59
2018-07-21T04:01:17.071Z,50.85
2018-07-21T04:03:45.905Z,50.74
2018-07-21T04:06:14.976Z,50.80
2018-07-21T04:08:44.476Z,50.85
2018-07-21T04:11:13.821Z,50.61
2018-07-21T04:13:43.028Z,50.37
2018-07-21T04:16:12.017Z,50.68
2018-07-21T04:18:41.343Z,50.11
2018-07-21T04:21:10.616Z,51.22
2018-07-21T04:23:39.907Z,49.69
2018-07-21T04:26:09.096Z,50.02
2018-07-21T04:28:38.340Z,50.39
2018-07-21T04:31:08.055Z,49.67
2018-07-21T04:33:37.316Z,51.06
2018-07-21T04:36:06.395Z,50.07
2018-07-21T04:38:35.751Z,50.27
2018-07-21T04:41:05.115Z,49.48
2018-07-21T04:43:34.169Z,50.62
2018-07-21T04:46:03.208Z,51.42
2018-07-21T04:48:32.185Z,50.98
2018-07-21T04:51:01.225Z,49.60
2018-07-21T04:53:30.568Z,50.80
2018-07-21T04:55:59.792Z,50.81
2018-07-21T04:58:29.122Z,49.40
2018-07-21T05:00:58.402Z,49.71
2018-07-21T05:03:27.570Z,50.82
2018-07-21T05:05:57.036Z,50.18
2018-07-21T05:08:26.645Z,50.83
2018-07-21T05:10:55.754Z,50.71
2018-07-21T05:13:25.188Z,52.71
2018-07-21T05:15:54.351Z,52.78
2018-07-21T05:18:23.608Z,52.48
2018-07-21T05:20:52.618Z,51.40
2018-07-21T05:23:21.512Z,49.86
2018-07-21T05:25:50.755Z,49.86
2018-07-21T05:28:19.699Z,51.10
2018-07-21T05:30:48.971Z,50.38
2018-07-21T05:33:17.940Z,50.17
2018-07-21T05:35:47.278Z,49.46
2018-07-21T05:38:16.615Z,48.25
2018-07-21T05:40:45.754Z,48.21
2018-07-21T05:43:15.037Z,47.88
2018-07-21T05:45:44.413Z,48.90
2018-07-21T05:48:13.607Z,47.83
2018-07-21T05:50:42.828Z,48.07
2018-07-21T05:53:12.244Z,48.66
2018-07-21T05:55:41.471Z,48.43
2018-07-21T05:58:10.858Z,48.25
2018-07-21T06:00:40.117Z,47.22
2018-07-21T06:03:09.524Z,47.30
2018-07-21T06:05:38.472Z,48.16
2018-07-21T06:08:07.969Z,48.61
2018-07-21T06:10:36.871Z,48.59
2018-07-21T06:13:06.341Z,48.28
2018-07-21T06:15:35.639Z,48.72
2018-07-21T06:18:04.993Z,47.23
2018-07-21T06:20:34.470Z,47.17
2018-07-21T06:23:03.899Z,46.51
2018-07-21T06:25:33.348Z,47.32
2018-07-21T06:28:02.824Z,46.36
2018-07-21T06:30:32.001Z,47.70
2018-07-21T06:33:01.350Z,48.17
2018-07-21T06:35:30.734Z,47.24
2018-07-21T06:37:59.891Z,48.08
2018-07-21T06:40:29.168Z,47.53
2018-07-21T06:42:58.649Z,47.63
2018-07-21T06:45:28.131Z,47.17
2018-07-21T06:47:57.451Z,47.12
2018-07-21T06:50:26.805Z,46.57
2018-07-21T06:52:56.120Z,46.99
2018-07-21T06:55:25.484Z,45.92
2018-07-21T06:57:54.703Z,45.93
2018-07-21T07:00:23.723Z,46.00
2018-07-21T07:02:52.875Z,46.30
2018-07-21T07:05:21.996Z,46.40
2018-07-21T07:07:51.189Z,45.27
2018-07-21T07:10:20.524Z,46.31
2018-07-21T07:12:49.583Z,46.04
2018-07-21T07:15:18.872Z,46.22
2018-07-21T07:17:47.872Z,45.38
2018-07-21T07:20:17.017Z,44.68
2018-07-21T07:22:46.408Z,45.34
2018-07-21T07:25:15.760Z,45.64
2018-07-21T07:27:45.109Z,43.48
2018-07-21T07:30:14.510Z,43.96
2018-07-21T07:32:43.472Z,44.07
2018-07-21T07:35:12.525Z,44.35
2018-07-21T07:37:41.703Z,44.11
2018-07-21T07:40:10.751Z,44.69
2018-07-21T07:42:40.133Z,44.28
2018-07-21T07:45:09.475Z,43.81
2018-07-21T07:47:38.614Z,43.71
2018-07-21T07:50:07.746Z,42.85
2018-07-21T07:52:37.028Z,42.50
2018-07-21T07:55:06.248Z,41.79
2018-07-21T07:57:35.868Z,41.90
2018-07-21T08:00:05.833Z,42.18
2018-07-21T08:02:34.864Z,40.69
2018-07-21T08:05:04.139Z,42.64
2018-07-21T08:07:33.345Z,41.65
2018-07-21T08:10:02.326Z,43.41
2018-07-21T08:12:31.407Z,42.63
2018-07-21T08:15:00.249Z,42.74
2018-07-21T08:17:29.444Z,42.08
2018-07-21T08:19:58.699Z,42.41
2018-07-21T08:22:28.009Z,42.38
2018-07-21T08:24:57.345Z,42.05
2018-07-21T08:27:26.645Z,41.59
2018-07-21T08:29:56.033Z,40.75
2018-07-21T08:32:25.447Z,41.55
2018-07-21T08:34:54.745Z,41.41
2018-07-21T08:37:23.768Z,40.40
2018-07-21T08:39:53.163Z,40.95
2018-07-21T08:42:22.344Z,39.97
2018-07-21T08:44:51.697Z,39.90
2018-07-21T08:47:20.714Z,40.14
2018-07-21T08:49:50.090Z,40.61
2018-07-21T08:52:19.069Z,39.70
2018-07-21T08:54:48.330Z,39.37
2018-07-21T08:57:17.718Z,40.40
2018-07-21T08:59:46.927Z,39.82
2018-07-21T09:02:16.183Z,40.24
2018-07-21T09:04:45.158Z,39.76
2018-07-21T09:07:14.391Z,39.02
2018-07-21T09:09:43.602Z,37.78
2018-07-21T09:12:13.000Z,37.44
2018-07-21T09:14:42.477Z,38.28
2018-07-21T09:17:11.748Z,37.39
2018-07-21T09:19:40.887Z,38.58
2018-07-21T09:22:10.150Z,38.59
2018-07-21T09:24:39.294Z,38.27
2018-07-21T09:27:08.190Z,38.57
2018-07-21T09:29:37.145Z,36.63
2018-07-21T09:32:06.391Z,36.30
2018-07-21T09:34:35.783Z,35.49
2018-07-21T09:37:05.132Z,36.00
2018-07-21T09:39:34.361Z,34.23
2018-07-21T09:42:03.676Z,32.31
2018-07-21T09:44:32.935Z,30.42
2018-07-21T09:47:02.310Z,30.26
2018-07-21T09:49:31.424Z,29.71
2018-07-21T09:52:00.260Z,28.56
2018-07-21T09:54:29.356Z,28.31
2018-07-21T09:56:58.642Z,26.74
2018-07-21T09:59:27.893Z,25.92
2018-07-21T10:01:57.344Z,24.59
2018-07-21T10:04:26.710Z,23.19
2018-07-21T10:06:56.135Z,20.80
2018-07-21T10:09:25.200Z,20.82
2018-07-21T10:11:54.458Z,18.94
2018-07-21T10:14:23.667Z,17.49
2018-07-21T10:16:52.923Z,18.40
2018-07-21T10:19:22.178Z,17.19
2018-07-21T10:21:51.372Z,17.13
2018-07-21T10:25:28.509Z,16.15
2018-07-21T10:28:02.835Z,14.52
2018-07-21T10:30:32.328Z,14.59
2018-07-21T10:33:01.549Z,14.43
2018-07-21T10:35:30.853Z,14.10
2018-07-21T10:38:00.150Z,13.60
2018-07-21T10:40:29.499Z,12.11
2018-07-21T10:42:58.706Z,13.20
2018-07-21T10:45:28.361Z,13.75
2018-07-21T10:47:57.585Z,13.48
2018-07-21T10:50:26.860Z,13.36
2018-07-21T10:52:55.839Z,14.88
2018-07-21T10:55:24.940Z,14.87
2018-07-21T10:57:54.422Z,14.58
2018-07-21T11:00:23.731Z,15.12
2018-07-21T11:02:53.244Z,14.56
2018-07-21T11:05:22.275Z,14.28
2018-07-21T11:07:51.341Z,13.49
2018-07-21T11:10:20.630Z,13.73
2018-07-21T11:12:49.736Z,13.44
2018-07-21T11:15:18.740Z,13.62
2018-07-21T11:17:48.127Z,13.38
2018-07-21T11:20:17.624Z,11.74
2018-07-21T11:22:46.966Z,12.79
2018-07-21T11:25:16.202Z,12.44
2018-07-21T11:27:45.588Z,12.48
2018-07-21T11:30:14.607Z,12.63
2018-07-21T11:32:43.860Z,12.30
2018-07-21T11:35:13.238Z,12.46
2018-07-21T11:37:42.439Z,12.42
2018-07-21T11:40:11.637Z,11.47
2018-07-21T11:42:40.825Z,11.81
2018-07-21T11:45:10.064Z,12.33
2018-07-21T11:47:39.568Z,12.21
2018-07-21T11:50:08.511Z,12.31
2018-07-21T11:52:37.420Z,12.84
2018-07-21T11:55:07.036Z,12.18
2018-07-21T11:57:36.456Z,11.97
2018-07-21T12:00:05.791Z,11.20
2018-07-21T12:02:35.073Z,10.94
2018-07-21T12:05:04.184Z,10.99
2018-07-21T12:07:33.358Z,11.85
2018-07-21T12:10:02.852Z,11.66
2018-07-21T12:12:32.105Z,11.71
2018-07-21T12:15:01.548Z,12.38
2018-07-21T12:17:30.902Z,12.52
2018-07-21T12:19:59.923Z,12.87
2018-07-21T12:22:29.137Z,12.18
2018-07-21T12:24:58.471Z,11.75
2018-07-21T12:27:27.872Z,12.34
2018-07-21T12:29:56.954Z,12.38
2018-07-21T12:32:26.251Z,12.52
2018-07-21T12:34:55.159Z,12.26
2018-07-21T12:37:24.442Z,12.50
2018-07-21T12:39:53.608Z,11.89
2018-07-21T12:42:23.033Z,10.90
2018-07-21T12:44:52.363Z,10.83
2018-07-21T12:47:21.491Z,10.17
2018-07-21T12:49:50.604Z,11.23
2018-07-21T12:52:20.000Z,10.97
2018-07-21T12:54:49.219Z,10.49
2018-07-21T12:57:18.403Z,11.24
2018-07-21T12:59:47.726Z,11.70
2018-07-21T13:02:16.864Z,11.86
2018-07-21T13:04:46.029Z,12.17
2018-07-21T13:07:15.037Z,12.15
2018-07-21T13:09:44.772Z,13.04
2018-07-21T13:12:14.199Z,12.99
2018-07-21T13:14:43.543Z,12.39
2018-07-21T13:17:13.217Z,11.99
2018-07-21T13:19:42.470Z,12.03
2018-07-21T13:22:11.595Z,12.74
2018-07-21T13:24:40.960Z,13.64
2018-07-21T13:27:10.316Z,14.58
2018-07-21T13:29:39.540Z,13.92
2018-07-21T13:32:08.897Z,14.62
2018-07-21T13:34:38.215Z,15.58
2018-07-21T13:37:07.663Z,14.80
2018-07-21T13:39:36.804Z,14.94
2018-07-21T13:42:05.838Z,15.55
2018-07-21T13:44:35.054Z,16.28
2018-07-21T13:47:04.460Z,17.29
2018-07-21T13:49:33.644Z,17.93
2018-07-21T13:52:02.988Z,17.84
2018-07-21T13:54:32.436Z,17.68
2018-07-21T13:57:01.748Z,18.09
2018-07-21T13:59:31.129Z,17.94
2018-07-21T14:02:00.590Z,18.05
2018-07-21T14:04:30.017Z,18.36
2018-07-21T14:06:58.953Z,17.84
2018-07-21T14:09:28.083Z,17.60
2018-07-21T14:11:57.323Z,18.33
2018-07-21T14:14:26.620Z,18.78
2018-07-21T14:16:55.845Z,20.01
2018-07-21T14:19:25.283Z,19.02
2018-07-21T14:21:55.252Z,18.71
2018-07-21T14:24:24.803Z,19.62
2018-07-21T14:26:54.263Z,20.09
2018-07-21T14:29:23.565Z,21.12
2018-07-21T14:31:52.532Z,22.28
2018-07-21T14:34:21.785Z,22.60
2018-07-21T14:36:51.048Z,22.51
2018-07-21T14:39:20.340Z,22.79
2018-07-21T14:41:49.845Z,22.97
2018-07-21T14:44:19.070Z,22.69
2018-07-21T14:46:48.419Z,22.27
2018-07-21T14:49:17.406Z,22.49
2018-07-21T14:51:46.457Z,22.38
2018-07-21T14:54:15.969Z,23.20
2018-07-21T14:56:45.457Z,23.25
2018-07-21T14:59:14.756Z,23.55
2018-07-21T15:01:44.020Z,24.35
2018-07-21T15:04:13.458Z,24.89
2018-07-21T15:06:42.561Z,24.88
2018-07-21T15:09:12.504Z,25.07
2018-07-21T15:11:41.704Z,25.51
2018-07-21T15:14:11.008Z,26.37
2018-07-21T15:16:40.369Z,26.32
2018-07-21T15:19:09.707Z,26.37
2018-07-21T15:21:39.064Z,26.31
2018-07-21T15:24:08.530Z,26.49
2018-07-21T15:26:37.911Z,26.90
2018-07-21T15:29:07.203Z,27.15
2018-07-21T15:31:36.571Z,27.55
2018-07-21T15:34:05.965Z,27.82
2018-07-21T15:36:35.115Z,28.25
2018-07-21T15:39:05.021Z,28.13
2018-07-21T15:41:34.367Z,27.42
2018-07-21T15:44:03.774Z,28.13
2018-07-21T15:46:32.922Z,29.36
2018-07-21T15:49:02.279Z,28.59
2018-07-21T15:51:31.182Z,28.71
2018-07-21T15:54:00.495Z,28.70
2018-07-21T15:56:29.807Z,30.01
2018-07-21T15:58:58.940Z,30.18
2018-07-21T16:01:28.214Z,30.15
2018-07-21T16:03:57.177Z,29.47
2018-07-21T16:06:26.540Z,29.99
2018-07-21T16:08:55.974Z,30.49
2018-07-21T16:11:24.820Z,29.80
2018-07-21T16:13:54.056Z,29.55
2018-07-21T16:16:23.560Z,29.92
2018-07-21T16:18:52.599Z,30.53
2018-07-21T16:21:21.629Z,30.59
2018-07-21T16:23:50.920Z,31.28
2018-07-21T16:26:20.022Z,30.33
2018-07-21T16:28:49.340Z,31.06
2018-07-21T16:31:18.828Z,31.63
2018-07-21T16:33:48.073Z,31.56
2018-07-21T16:36:17.498Z,32.42
2018-07-21T16:38:46.798Z,32.04
2018-07-21T16:41:16.039Z,32.27
2018-07-21T16:43:45.218Z,32.82
2018-07-21T16:46:14.042Z,32.52
2018-07-21T16:48:43.115Z,33.82
2018-07-21T16:51:12.220Z,33.37
2018-07-21T16:53:41.326Z,33.76
2018-07-21T16:56:10.390Z,34.07
2018-07-21T16:58:39.542Z,34.34
2018-07-21T17:01:08.550Z,35.41
2018-07-21T17:03:37.676Z,34.66
2018-07-21T17:06:06.918Z,35.05
2018-07-21T17:08:36.012Z,35.73
2018-07-21T17:11:05.362Z,35.41
2018-07-21T17:13:34.674Z,36.30
2018-07-21T17:16:03.907Z,36.65
2018-07-21T17:18:32.989Z,37.13
2018-07-21T17:21:02.227Z,37.04
2018-07-21T17:23:31.144Z,36.52
2018-07-21T17:26:00.453Z,37.39
2018-07-21T17:28:29.543Z,39.02
2018-07-21T17:30:58.578Z,39.00
2018-07-21T17:33:27.614Z,38.65
2018-07-21T17:35:56.359Z,38.29
2018-07-21T17:38:25.664Z,38.81
2018-07-21T17:40:54.451Z,40.36
2018-07-21T17:43:23.496Z,41.11
2018-07-21T17:45:52.638Z,42.18
2018-07-21T17:48:21.972Z,41.97
2018-07-21T17:50:51.220Z,43.10
2018-07-21T17:53:20.072Z,42.78
2018-07-21T17:55:49.358Z,43.63
2018-07-21T17:58:18.411Z,44.07
2018-07-21T18:00:47.654Z,43.00
2018-07-21T18:03:16.857Z,43.78
2018-07-21T18:05:46.247Z,44.71
2018-07-21T18:08:15.552Z,44.66
2018-07-21T18:10:44.751Z,43.92
2018-07-21T18:13:13.761Z,45.12
2018-07-21T18:15:43.078Z,44.12
2018-07-21T18:18:12.232Z,44.86
2018-07-21T18:20:41.576Z,44.75
2018-07-21T18:23:10.662Z,45.08
2018-07-21T18:25:40.050Z,46.34
2018-07-21T18:28:09.202Z,46.55
2018-07-21T18:30:38.541Z,46.97
2018-07-21T18:33:07.607Z,46.19
2018-07-21T18:35:36.376Z,46.50
2018-07-21T18:38:05.491Z,46.77
2018-07-21T18:40:34.730Z,46.62
2018-07-21T18:43:03.639Z,47.17
2018-07-21T18:45:32.818Z,47.78
2018-07-21T18:48:01.855Z,46.69
2018-07-21T18:50:31.060Z,46.45
2018-07-21T18:52:59.991Z,46.12
2018-07-21T18:55:29.212Z,46.27
2018-07-21T18:57:58.187Z,46.40
2018-07-21T19:00:27.368Z,47.17
2018-07-21T19:02:56.510Z,47.45
2018-07-21T19:05:25.550Z,47.52
2018-07-21T19:07:54.674Z,46.86
2018-07-21T19:10:23.773Z,46.90
2018-07-21T19:12:52.802Z,47.12
2018-07-21T19:15:26.844Z,47.72
2018-07-21T19:17:55.820Z,47.41
2018-07-21T19:20:30.121Z,47.89
2018-07-21T19:22:59.111Z,46.74
2018-07-21T19:26:34.904Z,45.40
2018-07-21T19:29:04.021Z,46.09
2018-07-21T19:31:33.323Z,43.78
2018-07-21T19:34:02.368Z,42.11
2018-07-21T19:36:31.451Z,44.96
2018-07-21T19:39:00.798Z,43.73
2018-07-21T19:41:34.677Z,43.99
2018-07-21T19:44:03.652Z,45.57
2018-07-21T19:46:32.832Z,46.08
2018-07-21T19:49:02.107Z,45.37
2018-07-21T19:51:31.109Z,46.30
2018-07-21T19:53:59.916Z,46.12
2018-07-21T19:56:29.226Z,46.46
2018-07-21T19:58:58.370Z,46.49
2018-07-21T20:01:27.166Z,47.22
2018-07-21T20:03:56.056Z,47.13
2018-07-21T20:06:25.080Z,47.58
2018-07-21T20:08:54.150Z,48.46
2018-07-21T20:11:23.426Z,48.11
2018-07-21T20:13:52.579Z,47.72
2018-07-21T20:16:21.818Z,47.62
2018-07-21T20:18:50.898Z,48.08
2018-07-21T20:21:20.010Z,47.84
2018-07-21T20:23:49.074Z,48.63
2018-07-21T20:26:18.179Z,46.82
2018-07-21T20:28:47.340Z,47.34
2018-07-21T20:31:16.206Z,47.88
2018-07-21T20:33:45.421Z,46.95
2018-07-21T20:36:14.634Z,48.13
2018-07-21T20:38:43.478Z,47.74
2018-07-21T20:41:12.598Z,48.31
2018-07-21T20:43:41.674Z,48.63
2018-07-21T20:46:10.902Z,49.30
2018-07-21T20:48:40.171Z,49.05
2018-07-21T20:51:09.632Z,48.65
2018-07-21T20:53:38.746Z,49.04
2018-07-21T20:56:07.634Z,49.34
2018-07-21T20:58:36.352Z,49.67
2018-07-21T21:01:05.510Z,51.17
2018-07-21T21:03:34.543Z,51.13
2018-07-21T21:06:03.662Z,50.61
2018-07-21T21:08:32.538Z,50.39
2018-07-21T21:11:01.778Z,52.10
2018-07-21T21:13:30.580Z,51.30
2018-07-21T21:15:59.569Z,50.91
2018-07-21T21:18:28.599Z,51.01
2018-07-21T21:20:57.348Z,50.67
2018-07-21T21:23:26.326Z,50.88
2018-07-21T21:25:55.418Z,50.90
2018-07-21T21:28:24.702Z,50.57
2018-07-21T21:30:53.972Z,50.00
2018-07-21T21:33:23.204Z,49.50
2018-07-21T21:35:52.137Z,48.60
2018-07-21T21:38:21.111Z,47.89
2018-07-21T21:40:50.251Z,49.73
2018-07-21T21:43:19.636Z,49.23
2018-07-21T21:45:48.443Z,48.97
2018-07-21T21:48:17.663Z,48.02
2018-07-21T21:50:46.729Z,46.11
2018-07-21T21:53:15.822Z,46.96
2018-07-21T21:55:45.023Z,45.81
2018-07-21T21:58:14.127Z,45.39
2018-07-21T22:01:17.506Z,44.38
2018-07-21T22:03:46.452Z,44.75
2018-07-21T22:06:15.811Z,45.62
2018-07-21T22:08:45.065Z,45.94
2018-07-21T22:11:13.865Z,46.01
2018-07-21T22:13:43.030Z,45.92
2018-07-21T22:16:12.268Z,48.01
2018-07-21T22:18:41.459Z,47.87
2018-07-21T22:21:10.225Z,48.77
2018-07-21T22:23:39.198Z,49.24
2018-07-21T22:26:08.507Z,50.09
2018-07-21T22:28:37.533Z,49.31
2018-07-21T22:31:06.774Z,49.36
2018-07-21T22:33:35.602Z,50.70
2018-07-21T22:36:04.799Z,50.41
2018-07-21T22:38:33.624Z,49.84
2018-07-21T22:41:02.366Z,51.16
2018-07-21T22:43:31.212Z,51.40
2018-07-21T22:46:00.406Z,50.42
2018-07-21T22:48:29.626Z,49.52
2018-07-21T22:50:58.674Z,50.73
2018-07-21T22:53:28.041Z,49.83
2018-07-21T22:55:57.255Z,50.63
2018-07-21T22:58:26.361Z,51.82
2018-07-21T23:00:55.318Z,51.71
2018-07-21T23:03:24.538Z,52.04
2018-07-21T23:05:53.753Z,52.36
2018-07-21T23:08:22.963Z,51.62
2018-07-21T23:10:51.866Z,51.85
2018-07-21T23:13:20.715Z,53.32
2018-07-21T23:15:50.005Z,53.22
2018-07-21T23:18:19.350Z,52.28
2018-07-21T23:20:48.407Z,52.23
2018-07-21T23:23:17.625Z,52.63
2018-07-21T23:25:46.822Z,52.09
2018-07-21T23:28:15.889Z,53.57
2018-07-21T23:30:45.091Z,52.97
2018-07-21T23:33:14.279Z,52.78
2018-07-21T23:35:43.405Z,53.70
2018-07-21T23:38:12.571Z,53.22
2018-07-21T23:40:41.739Z,52.38
2018-07-21T23:43:10.762Z,52.59
2018-07-21T23:45:39.862Z,52.97
2018-07-21T23:48:08.862Z,53.98
2018-07-21T23:50:38.186Z,53.55
2018-07-21T23:53:07.112Z,54.81
2018-07-21T23:55:36.239Z,53.59
2018-07-21T23:58:05.774Z,52.92
